Time;durP1;ratioP1;P1;durP2;ratioP2;P2;SDS_P1;SDS_P2;PMS_P1;PMS_P2;Temp;Humidity;BMP_temperature;BMP_pressure;BME280_temperature;BME280_humidity;BME280_pressure;Samples;Min_cycle;Max_cycle;Signal;HPM_P1;HPM_P2
2023/09/28 00:02:54;;;;;;;9.77;6.95;;;17.50;99.90;;;;;;5099718;28;20082;-68
2023/09/28 00:05:20;;;;;;;11.85;7.28;;;17.50;99.90;;;;;;5107697;28;20027;-68
2023/09/28 00:07:47;;;;;;;10.85;7.18;;;17.40;99.90;;;;;;5102755;28;20030;-68
2023/09/28 00:10:15;;;;;;;14.18;7.60;;;17.40;99.90;;;;;;5107567;28;20023;-68
2023/09/28 00:12:52;;;;;;;11.82;7.38;;;17.30;99.90;;;;;;5106803;28;20043;-68
2023/09/28 00:15:21;;;;;;;9.15;6.47;;;17.30;99.90;;;;;;5105040;28;20028;-69
2023/09/28 00:17:48;;;;;;;10.32;7.38;;;17.30;99.90;;;;;;5105989;28;20028;-68
2023/09/28 00:20:19;;;;;;;11.43;7.82;;;17.30;99.90;;;;;;5103721;28;20089;-68
2023/09/28 00:22:46;;;;;;;11.48;7.70;;;17.20;99.90;;;;;;5106230;28;20039;-68
2023/09/28 00:25:12;;;;;;;11.82;7.60;;;17.20;99.90;;;;;;5104837;28;20035;-68
2023/09/28 00:27:39;;;;;;;11.05;6.80;;;17.20;99.90;;;;;;5106599;28;20105;-68
2023/09/28 00:30:09;;;;;;;9.95;6.90;;;17.10;99.90;;;;;;5103730;28;20036;-68
2023/09/28 00:32:35;;;;;;;11.65;8.25;;;17.10;99.90;;;;;;5102229;27;20035;-68
2023/09/28 00:35:05;;;;;;;13.90;8.57;;;17.10;99.90;;;;;;5104166;28;20031;-68
2023/09/28 00:37:32;;;;;;;12.65;8.40;;;17.00;99.90;;;;;;5106585;28;20043;-68
2023/09/28 00:39:58;;;;;;;9.65;8.00;;;17.00;99.90;;;;;;5105309;28;20042;-68
2023/09/28 00:42:27;;;;;;;10.80;7.25;;;17.00;99.90;;;;;;5102902;28;20387;-68
2023/09/28 00:44:53;;;;;;;10.68;7.90;;;17.00;99.90;;;;;;5103929;28;20031;-68
2023/09/28 00:47:19;;;;;;;8.80;7.10;;;17.00;99.90;;;;;;5105108;28;20095;-68
2023/09/28 00:49:46;;;;;;;11.05;7.43;;;16.90;99.90;;;;;;5106504;28;20399;-68
2023/09/28 00:52:16;;;;;;;10.63;7.40;;;16.90;99.90;;;;;;5106412;28;20038;-68
2023/09/28 00:54:47;;;;;;;10.52;7.60;;;16.90;99.90;;;;;;5102372;28;20132;-68
2023/09/28 00:57:13;;;;;;;10.30;7.85;;;17.00;99.90;;;;;;5106424;28;20084;-69
2023/09/28 00:59:40;;;;;;;10.45;7.45;;;17.00;99.90;;;;;;5104568;28;20046;-68
2023/09/28 01:02:09;;;;;;;10.88;7.80;;;16.90;99.90;;;;;;5106347;28;20023;-68
2023/09/28 01:04:38;;;;;;;10.85;7.75;;;16.90;99.90;;;;;;5103579;28;20031;-68
2023/09/28 01:07:04;;;;;;;9.77;7.30;;;16.90;99.90;;;;;;5100942;28;20085;-68
2023/09/28 01:09:30;;;;;;;11.07;7.30;;;16.90;99.90;;;;;;5106396;28;20020;-68
2023/09/28 01:11:57;;;;;;;9.50;7.35;;;16.90;99.90;;;;;;5104761;28;20023;-68
2023/09/28 01:14:23;;;;;;;14.57;8.00;;;16.90;99.90;;;;;;5106039;28;20035;-69
2023/09/28 01:16:49;;;;;;;8.60;7.30;;;16.90;99.90;;;;;;5099046;28;20050;-68
2023/09/28 01:19:14;;;;;;;11.18;7.72;;;17.00;99.90;;;;;;5104887;28;20403;-68
2023/09/28 01:21:40;;;;;;;10.77;7.80;;;17.00;99.90;;;;;;5101584;28;20554;-68
2023/09/28 01:24:06;;;;;;;10.30;7.63;;;17.00;99.90;;;;;;5105855;28;20117;-68
2023/09/28 01:26:34;;;;;;;10.85;7.47;;;17.00;99.90;;;;;;5097687;28;20036;-68
2023/09/28 01:29:00;;;;;;;9.50;7.85;;;17.00;99.90;;;;;;5105242;28;20745;-69
2023/09/28 01:31:27;;;;;;;18.50;7.68;;;17.00;99.90;;;;;;5102521;28;20020;-68
2023/09/28 01:33:54;;;;;;;10.98;7.68;;;17.00;99.90;;;;;;5105837;28;20395;-68
2023/09/28 01:36:20;;;;;;;11.40;7.32;;;17.00;99.90;;;;;;5098215;28;20027;-68
2023/09/28 01:38:58;;;;;;;12.77;8.20;;;17.00;99.90;;;;;;5104128;28;20384;-68
2023/09/28 01:41:23;;;;;;;13.10;7.63;;;17.00;99.90;;;;;;5105685;28;20024;-68
2023/09/28 01:43:49;;;;;;;12.80;7.63;;;17.00;99.90;;;;;;5099796;28;20576;-68
2023/09/28 01:46:15;;;;;;;10.93;7.70;;;17.00;99.90;;;;;;5104020;28;20035;-68
2023/09/28 01:48:41;;;;;;;9.50;7.07;;;17.00;99.90;;;;;;5104679;28;20028;-68
2023/09/28 01:51:06;;;;;;;10.93;6.95;;;17.00;99.90;;;;;;5104527;28;20490;-68
2023/09/28 01:53:32;;;;;;;10.05;7.15;;;17.00;99.90;;;;;;5100966;28;20027;-68
2023/09/28 01:56:02;;;;;;;15.23;7.50;;;17.00;99.90;;;;;;5105491;28;20028;-68
2023/09/28 01:58:29;;;;;;;9.75;6.88;;;17.00;99.90;;;;;;5103491;28;20065;-68
2023/09/28 02:00:56;;;;;;;9.75;7.50;;;17.00;99.90;;;;;;5103675;28;20035;-68
2023/09/28 02:03:22;;;;;;;9.30;6.63;;;17.00;99.90;;;;;;5104805;28;20047;-68
2023/09/28 02:05:52;;;;;;;12.73;7.78;;;17.00;99.90;;;;;;5101762;28;20435;-67
2023/09/28 02:08:18;;;;;;;10.52;6.90;;;17.00;99.90;;;;;;5103597;28;20027;-68
2023/09/28 02:10:45;;;;;;;11.75;6.93;;;17.00;99.90;;;;;;5102868;28;20138;-68
2023/09/28 02:13:11;;;;;;;9.95;6.93;;;17.00;99.90;;;;;;5103477;28;20118;-68
2023/09/28 02:15:37;;;;;;;8.45;6.45;;;17.00;99.90;;;;;;5101201;28;20131;-68
2023/09/28 02:18:04;;;;;;;9.10;6.57;;;17.00;99.90;;;;;;5104827;28;20034;-68
2023/09/28 02:20:31;;;;;;;12.68;6.63;;;17.00;99.90;;;;;;5100786;28;20491;-68
2023/09/28 02:22:57;;;;;;;8.93;6.50;;;17.00;99.90;;;;;;5101184;28;20111;-68
2023/09/28 02:25:24;;;;;;;11.68;7.40;;;17.00;99.90;;;;;;5099994;28;20034;-68
2023/09/28 02:27:51;;;;;;;7.35;6.20;;;17.00;99.90;;;;;;5105036;28;20019;-68
2023/09/28 02:30:22;;;;;;;10.52;6.93;;;17.00;99.90;;;;;;5105056;28;20387;-68
2023/09/28 02:32:49;;;;;;;11.60;6.72;;;17.00;99.90;;;;;;5101574;28;20112;-68
2023/09/28 02:35:16;;;;;;;11.68;6.82;;;17.00;99.90;;;;;;5103498;28;20031;-68
2023/09/28 02:37:48;;;;;;;9.75;6.95;;;17.00;99.90;;;;;;5100754;28;20771;-68
2023/09/28 02:40:15;;;;;;;10.10;7.13;;;17.00;99.90;;;;;;5105042;28;20515;-68
2023/09/28 02:42:42;;;;;;;10.93;6.43;;;17.00;99.90;;;;;;5099860;28;20494;-68
2023/09/28 02:45:11;;;;;;;11.95;6.65;;;17.00;99.90;;;;;;5104893;28;20449;-68
2023/09/28 02:47:45;;;;;;;9.50;6.80;;;17.00;99.90;;;;;;5102857;28;20027;-68
2023/09/28 02:50:13;;;;;;;8.45;7.13;;;17.00;99.90;;;;;;5104914;28;20024;-68
2023/09/28 02:52:40;;;;;;;10.93;8.07;;;17.00;99.90;;;;;;5101745;28;20027;-68
2023/09/28 02:55:08;;;;;;;11.43;7.35;;;17.10;99.90;;;;;;5102838;28;20016;-68
2023/09/28 02:57:34;;;;;;;9.90;6.60;;;17.10;99.90;;;;;;5101818;28;20039;-68
2023/09/28 03:00:01;;;;;;;10.10;6.38;;;17.10;99.90;;;;;;5103575;28;20038;-68
2023/09/28 03:02:27;;;;;;;9.82;6.80;;;17.10;99.90;;;;;;5103344;28;20028;-68
2023/09/28 03:04:53;;;;;;;12.13;7.05;;;17.10;99.90;;;;;;5099421;28;20036;-67
2023/09/28 03:07:19;;;;;;;8.88;6.03;;;17.10;99.90;;;;;;5101664;28;20561;-68
2023/09/28 03:09:45;;;;;;;9.30;6.13;;;17.10;99.90;;;;;;5104862;28;20035;-68
2023/09/28 03:12:11;;;;;;;9.77;6.78;;;17.10;99.90;;;;;;5098640;28;20027;-68
2023/09/28 03:14:37;;;;;;;8.95;6.60;;;17.10;99.90;;;;;;5104904;28;20031;-68
2023/09/28 03:17:04;;;;;;;11.45;7.45;;;17.10;99.90;;;;;;5108404;28;20077;-68
2023/09/28 03:19:30;;;;;;;9.45;7.25;;;17.10;99.90;;;;;;5108213;28;20048;-68
2023/09/28 03:21:56;;;;;;;10.63;7.03;;;17.10;99.90;;;;;;5104116;28;20373;-68
2023/09/28 03:24:22;;;;;;;8.55;6.55;;;17.10;99.90;;;;;;5100184;28;20116;-68
2023/09/28 03:26:49;;;;;;;11.10;7.63;;;17.10;99.90;;;;;;5108518;28;20020;-68
2023/09/28 03:29:15;;;;;;;8.25;7.20;;;17.10;99.90;;;;;;5106867;28;20027;-68
2023/09/28 03:31:41;;;;;;;8.38;6.25;;;17.10;99.90;;;;;;5106408;28;20042;-68
2023/09/28 03:34:07;;;;;;;10.07;6.53;;;17.10;99.90;;;;;;5107728;28;20491;-68
2023/09/28 03:36:33;;;;;;;9.40;6.80;;;17.10;99.90;;;;;;5107885;28;20045;-68
2023/09/28 03:38:59;;;;;;;8.05;6.82;;;17.10;99.90;;;;;;5107797;28;20023;-68
2023/09/28 03:41:25;;;;;;;10.02;6.45;;;17.10;99.90;;;;;;5108204;28;20039;-68
2023/09/28 03:43:51;;;;;;;9.20;6.90;;;17.00;99.90;;;;;;5099143;28;20035;-68
2023/09/28 03:46:20;;;;;;;9.10;7.15;;;17.00;99.90;;;;;;5108042;28;20076;-68
2023/09/28 03:48:46;;;;;;;9.68;6.68;;;17.00;99.90;;;;;;5107795;28;20035;-68
2023/09/28 03:51:12;;;;;;;9.60;7.35;;;17.00;99.90;;;;;;5107710;28;20034;-68
2023/09/28 03:53:41;;;;;;;9.63;7.25;;;17.00;99.90;;;;;;5105679;28;20043;-68
2023/09/28 03:56:07;;;;;;;10.43;7.72;;;17.00;99.90;;;;;;5107859;28;20034;-68
2023/09/28 03:58:33;;;;;;;10.05;7.35;;;17.00;99.90;;;;;;5104550;28;20036;-68
2023/09/28 04:00:59;;;;;;;13.43;7.68;;;17.00;99.90;;;;;;5107850;28;20039;-68
2023/09/28 04:03:25;;;;;;;10.77;7.47;;;17.00;99.90;;;;;;5103640;28;20031;-68
2023/09/28 04:05:51;;;;;;;10.90;6.95;;;17.00;99.90;;;;;;5107225;28;20034;-68
2023/09/28 04:08:16;;;;;;;11.60;7.20;;;17.00;99.90;;;;;;5107032;28;20034;-67
2023/09/28 04:10:42;;;;;;;10.25;7.00;;;16.90;99.90;;;;;;5107305;28;20069;-68
2023/09/28 04:13:08;;;;;;;11.20;7.05;;;17.00;99.90;;;;;;5107429;28;20080;-68
2023/09/28 04:15:35;;;;;;;11.05;7.47;;;16.90;99.90;;;;;;5107022;28;20068;-67
2023/09/28 04:18:01;;;;;;;11.15;7.35;;;16.90;99.90;;;;;;5107264;28;20425;-68
2023/09/28 04:20:26;;;;;;;10.20;7.15;;;16.90;99.90;;;;;;5107169;27;20506;-68
2023/09/28 04:22:52;;;;;;;11.20;6.55;;;16.80;99.90;;;;;;5107263;28;20045;-68
2023/09/28 04:25:20;;;;;;;13.35;7.72;;;16.80;99.90;;;;;;5106917;28;20055;-67
2023/09/28 04:27:47;;;;;;;9.25;7.13;;;16.80;99.90;;;;;;5107003;28;20023;-68
2023/09/28 04:30:13;;;;;;;9.88;7.03;;;16.80;99.90;;;;;;5107482;28;20028;-68
2023/09/28 04:32:39;;;;;;;10.40;7.43;;;16.70;99.90;;;;;;5105400;28;20028;-68
2023/09/28 04:35:10;;;;;;;8.88;6.85;;;16.70;99.90;;;;;;5107130;28;20016;-68
2023/09/28 04:37:37;;;;;;;12.00;7.72;;;16.70;99.90;;;;;;5105295;28;20127;-68
2023/09/28 04:40:04;;;;;;;11.55;7.60;;;16.70;99.90;;;;;;5107113;28;20036;-68
2023/09/28 04:42:29;;;;;;;10.45;7.05;;;16.70;99.90;;;;;;5106790;28;20076;-68
2023/09/28 04:44:55;;;;;;;14.35;8.32;;;16.70;99.90;;;;;;5105835;28;20810;-68
2023/09/28 04:47:21;;;;;;;11.48;8.10;;;16.70;99.90;;;;;;5106598;28;20023;-68
2023/09/28 04:49:48;;;;;;;12.75;8.10;;;16.60;99.90;;;;;;5106310;28;20122;-68
2023/09/28 04:52:13;;;;;;;15.07;8.23;;;16.60;99.90;;;;;;5104746;28;20770;-68
2023/09/28 04:54:39;;;;;;;9.48;7.03;;;16.60;99.90;;;;;;5106261;28;20039;-68
2023/09/28 04:57:05;;;;;;;11.43;7.32;;;16.60;99.90;;;;;;5106388;28;20027;-68
2023/09/28 04:59:37;;;;;;;12.40;7.40;;;16.60;99.90;;;;;;5098605;28;20020;-68
2023/09/28 05:02:04;;;;;;;10.25;8.07;;;16.60;99.90;;;;;;5105543;28;20114;-68
2023/09/28 05:04:30;;;;;;;9.05;7.63;;;16.50;99.90;;;;;;5105851;28;20654;-68
2023/09/28 05:06:56;;;;;;;10.27;7.75;;;16.50;99.90;;;;;;5106544;28;20052;-68
2023/09/28 05:09:21;;;;;;;12.35;7.63;;;16.50;99.90;;;;;;5106175;28;20024;-68
2023/09/28 05:11:47;;;;;;;11.23;8.23;;;16.50;99.90;;;;;;5106117;28;20184;-68
2023/09/28 05:14:13;;;;;;;9.43;7.10;;;16.50;99.90;;;;;;5103921;28;20032;-67
2023/09/28 05:16:39;;;;;;;10.30;7.95;;;16.50;99.90;;;;;;5102930;28;20578;-68
2023/09/28 05:19:04;;;;;;;10.95;7.72;;;16.50;99.90;;;;;;5098602;28;20040;-67
2023/09/28 05:21:30;;;;;;;12.13;8.30;;;16.40;99.90;;;;;;5105919;28;20066;-68
2023/09/28 05:23:56;;;;;;;12.32;8.07;;;16.50;99.90;;;;;;5096963;28;20453;-68
2023/09/28 05:26:21;;;;;;;12.05;7.90;;;16.50;99.90;;;;;;5101590;28;20919;-68
2023/09/28 05:28:47;;;;;;;11.77;8.52;;;16.40;99.90;;;;;;5105753;28;20610;-68
2023/09/28 05:31:13;;;;;;;11.93;8.43;;;16.50;99.90;;;;;;5105604;28;20027;-68
2023/09/28 05:33:39;;;;;;;14.38;8.88;;;16.50;99.90;;;;;;5105665;28;20112;-67
2023/09/28 05:36:05;;;;;;;11.82;7.50;;;16.50;99.90;;;;;;5105129;28;20107;-68
2023/09/28 05:38:31;;;;;;;12.40;8.80;;;16.50;99.90;;;;;;5105007;28;20028;-68
2023/09/28 05:40:57;;;;;;;11.50;8.20;;;16.50;99.90;;;;;;5105756;28;20083;-68
2023/09/28 05:43:22;;;;;;;10.40;8.43;;;16.50;99.90;;;;;;5105167;28;20039;-68
2023/09/28 05:45:48;;;;;;;11.27;8.00;;;16.50;99.90;;;;;;5105524;28;20060;-68
2023/09/28 05:48:14;;;;;;;13.25;8.90;;;16.50;99.90;;;;;;5103413;28;20042;-68
2023/09/28 05:50:40;;;;;;;10.82;8.40;;;16.50;99.90;;;;;;5105117;28;20529;-68
2023/09/28 05:53:06;;;;;;;12.15;8.07;;;16.60;99.90;;;;;;5105595;28;20027;-68
2023/09/28 05:55:32;;;;;;;12.23;8.77;;;16.60;99.90;;;;;;5102195;28;20084;-68
2023/09/28 05:57:57;;;;;;;11.98;8.02;;;16.60;99.90;;;;;;5103823;28;20028;-68
2023/09/28 06:00:24;;;;;;;16.85;8.45;;;16.60;99.90;;;;;;5105229;28;20034;-68
2023/09/28 06:02:50;;;;;;;10.35;7.93;;;16.60;99.90;;;;;;5105244;28;20015;-68
2023/09/28 06:05:15;;;;;;;12.40;8.23;;;16.70;99.90;;;;;;5102891;28;20392;-68
2023/09/28 06:07:41;;;;;;;11.65;7.85;;;16.70;99.90;;;;;;5105390;28;20460;-68
2023/09/28 06:10:10;;;;;;;11.38;8.15;;;16.70;99.90;;;;;;5100709;28;20092;-68
2023/09/28 06:12:36;;;;;;;12.10;8.13;;;16.80;99.90;;;;;;5103074;28;20047;-68
2023/09/28 06:15:04;;;;;;;12.32;8.32;;;16.80;99.90;;;;;;5101778;28;20035;-68
2023/09/28 06:17:30;;;;;;;11.68;7.88;;;16.90;99.90;;;;;;5105061;27;20122;-68
2023/09/28 06:19:56;;;;;;;11.02;8.20;;;16.90;99.90;;;;;;5101845;28;20036;-68
2023/09/28 06:22:21;;;;;;;13.73;9.05;;;17.00;99.90;;;;;;5099942;28;20043;-68
2023/09/28 06:24:48;;;;;;;10.40;8.13;;;17.10;99.90;;;;;;5101999;28;20092;-68
2023/09/28 06:27:13;;;;;;;9.70;7.25;;;17.10;99.90;;;;;;5105100;28;20081;-68
2023/09/28 06:29:39;;;;;;;12.13;7.88;;;17.20;99.90;;;;;;5105581;28;20016;-68
2023/09/28 06:32:05;;;;;;;13.32;8.65;;;17.20;99.90;;;;;;5105624;28;20747;-68
2023/09/28 06:34:31;;;;;;;9.35;7.57;;;17.30;99.90;;;;;;5098889;28;20832;-68
2023/09/28 06:36:56;;;;;;;10.93;7.85;;;17.30;99.90;;;;;;5097485;28;20495;-68
2023/09/28 06:39:22;;;;;;;10.57;8.05;;;17.40;99.90;;;;;;5102746;28;20410;-68
2023/09/28 06:41:49;;;;;;;11.60;7.78;;;17.40;99.90;;;;;;5105317;28;20376;-68
2023/09/28 06:44:23;;;;;;;10.40;8.00;;;17.50;99.90;;;;;;5101808;28;20031;-68
2023/09/28 06:46:49;;;;;;;13.27;7.38;;;17.50;99.90;;;;;;5100896;28;20023;-68
2023/09/28 06:49:15;;;;;;;12.23;8.68;;;17.60;99.90;;;;;;5104759;28;20085;-68
2023/09/28 06:51:42;;;;;;;11.05;7.78;;;17.60;99.90;;;;;;5108485;28;20038;-67
2023/09/28 06:54:08;;;;;;;11.07;7.93;;;17.70;99.90;;;;;;5109167;28;20054;-67
2023/09/28 06:56:36;;;;;;;14.40;8.63;;;17.80;99.90;;;;;;5104674;28;20043;-68
2023/09/28 06:59:03;;;;;;;11.98;8.70;;;17.90;99.90;;;;;;5108860;28;20051;-68
2023/09/28 07:01:29;;;;;;;9.77;8.27;;;18.00;99.90;;;;;;5105453;28;20100;-68
2023/09/28 07:03:55;;;;;;;11.55;8.43;;;18.10;99.90;;;;;;5108941;28;20413;-68
2023/09/28 07:06:24;;;;;;;11.48;8.73;;;18.20;99.90;;;;;;5108668;28;20035;-68
2023/09/28 07:08:50;;;;;;;14.75;9.32;;;18.20;99.90;;;;;;5104899;28;20086;-68
2023/09/28 07:11:16;;;;;;;10.23;8.57;;;18.40;99.90;;;;;;5104706;28;20495;-68
2023/09/28 07:13:42;;;;;;;14.35;8.48;;;18.50;99.90;;;;;;5106477;27;20032;-68
2023/09/28 07:16:08;;;;;;;11.43;8.38;;;18.80;99.90;;;;;;5108960;28;20035;-68
2023/09/28 07:18:35;;;;;;;15.10;8.43;;;19.20;99.90;;;;;;5108742;28;20085;-68
2023/09/28 07:21:02;;;;;;;17.40;9.95;;;19.80;99.90;;;;;;5105298;28;20387;-69
2023/09/28 07:23:28;;;;;;;10.02;8.18;;;20.20;99.90;;;;;;5104153;28;20135;-69
2023/09/28 07:25:55;;;;;;;12.25;8.25;;;20.30;99.90;;;;;;5108744;28;20530;-69
2023/09/28 07:28:21;;;;;;;14.85;8.95;;;20.50;99.90;;;;;;5105183;28;20722;-68
2023/09/28 07:30:47;;;;;;;15.25;9.32;;;20.60;99.50;;;;;;5099876;28;20114;-69
2023/09/28 07:33:15;;;;;;;14.43;9.18;;;20.60;99.50;;;;;;5108220;28;20628;-69
2023/09/28 07:35:44;;;;;;;18.63;8.82;;;20.50;99.80;;;;;;5106918;28;20063;-68
2023/09/28 07:38:10;;;;;;;13.05;9.30;;;20.40;99.70;;;;;;5108162;28;20545;-68
2023/09/28 07:40:36;;;;;;;15.43;9.00;;;20.30;99.90;;;;;;5108190;28;20031;-69
2023/09/28 07:43:01;;;;;;;14.20;8.95;;;20.20;99.90;;;;;;5107833;28;20447;-69
2023/09/28 07:45:27;;;;;;;13.02;8.98;;;20.20;99.90;;;;;;5106078;28;20539;-69
2023/09/28 07:47:53;;;;;;;14.23;9.18;;;20.10;99.90;;;;;;5108118;28;20032;-69
2023/09/28 07:50:19;;;;;;;16.02;9.40;;;20.10;99.90;;;;;;5108103;28;20031;-69
2023/09/28 07:52:45;;;;;;;15.20;8.73;;;20.20;99.90;;;;;;5108013;28;20066;-68
2023/09/28 07:55:12;;;;;;;18.42;8.93;;;20.20;99.90;;;;;;5107945;28;20038;-69
2023/09/28 07:57:39;;;;;;;15.35;9.73;;;20.20;99.90;;;;;;5108023;27;20032;-69
2023/09/28 08:00:06;;;;;;;16.30;9.20;;;20.30;99.90;;;;;;5107116;28;20039;-69
2023/09/28 08:02:37;;;;;;;14.77;8.60;;;20.40;99.90;;;;;;5107877;28;20721;-69
2023/09/28 08:05:03;;;;;;;10.80;8.00;;;20.40;99.90;;;;;;5105691;28;20028;-68
2023/09/28 08:07:32;;;;;;;11.98;7.85;;;20.50;99.90;;;;;;5107374;28;20423;-68
2023/09/28 08:09:58;;;;;;;13.05;7.93;;;20.60;99.90;;;;;;5107793;28;20027;-69
2023/09/28 08:12:25;;;;;;;14.32;8.82;;;20.80;99.90;;;;;;5107680;28;20135;-69
2023/09/28 08:14:50;;;;;;;11.82;8.27;;;21.00;99.90;;;;;;5105320;28;20445;-69
2023/09/28 08:17:16;;;;;;;9.98;7.95;;;21.10;99.60;;;;;;5102952;28;20035;-68
2023/09/28 08:19:42;;;;;;;13.95;8.05;;;21.20;99.40;;;;;;5107694;28;20108;-69
2023/09/28 08:22:10;;;;;;;14.52;8.45;;;21.20;99.10;;;;;;5107264;28;20027;-69
2023/09/28 08:24:36;;;;;;;13.60;8.75;;;21.20;99.30;;;;;;5107134;28;20042;-69
2023/09/28 08:27:04;;;;;;;10.85;7.28;;;21.20;99.40;;;;;;5107295;28;20027;-69
2023/09/28 08:29:30;;;;;;;12.30;8.27;;;21.20;99.40;;;;;;5103472;28;20103;-69
2023/09/28 08:31:57;;;;;;;12.50;8.30;;;21.30;99.10;;;;;;5104267;28;20646;-69
2023/09/28 08:34:23;;;;;;;10.65;8.10;;;21.40;99.20;;;;;;5106923;28;20494;-69
2023/09/28 08:36:50;;;;;;;11.48;7.45;;;21.40;99.00;;;;;;5107538;28;20031;-69
2023/09/28 08:39:16;;;;;;;14.75;8.45;;;21.50;99.10;;;;;;5107495;28;20031;-69
2023/09/28 08:41:52;;;;;;;10.95;7.40;;;21.50;99.40;;;;;;5103418;28;20041;-69
2023/09/28 08:44:21;;;;;;;12.43;7.22;;;21.70;99.10;;;;;;5105696;28;20494;-69
2023/09/28 08:46:49;;;;;;;10.82;7.18;;;21.90;98.70;;;;;;5103942;28;20091;-69
2023/09/28 08:49:16;;;;;;;8.93;7.40;;;22.10;98.60;;;;;;5107264;28;20096;-68
2023/09/28 08:51:44;;;;;;;10.70;7.43;;;22.40;98.10;;;;;;5106870;28;20036;-69
2023/09/28 08:54:12;;;;;;;9.48;7.13;;;22.60;98.00;;;;;;5102292;27;20112;-69
2023/09/28 08:56:39;;;;;;;16.05;7.35;;;23.00;97.50;;;;;;5107305;28;20035;-69
2023/09/28 08:59:05;;;;;;;11.32;7.07;;;23.40;96.70;;;;;;5107240;28;20027;-69
2023/09/28 09:01:32;;;;;;;11.50;7.07;;;23.60;96.30;;;;;;5106965;28;20036;-69
2023/09/28 09:03:59;;;;;;;12.65;7.32;;;24.00;96.10;;;;;;5106794;28;20023;-69
2023/09/28 09:06:28;;;;;;;8.98;6.85;;;24.20;95.80;;;;;;5106521;28;20019;-69
2023/09/28 09:09:00;;;;;;;11.25;6.97;;;24.20;95.30;;;;;;5106398;28;20175;-69
2023/09/28 09:11:28;;;;;;;11.55;7.45;;;24.20;95.80;;;;;;5104862;28;20571;-69
2023/09/28 09:13:57;;;;;;;10.80;7.43;;;24.20;95.50;;;;;;5102155;28;20804;-68
2023/09/28 09:16:24;;;;;;;9.30;7.07;;;24.10;95.10;;;;;;5103822;28;20467;-69
2023/09/28 09:18:52;;;;;;;8.52;6.60;;;24.10;95.50;;;;;;5105085;28;20648;-68
2023/09/28 09:21:19;;;;;;;7.75;6.65;;;24.10;95.30;;;;;;5106411;28;20499;-69
2023/09/28 09:24:05;;;;;;;9.57;6.35;;;24.10;95.50;;;;;;5105992;28;20114;-69
2023/09/28 09:26:42;;;;;;;9.70;6.18;;;24.20;95.80;;;;;;5106242;27;20077;-68
2023/09/28 09:29:09;;;;;;;6.97;6.28;;;24.30;95.50;;;;;;5104695;28;20558;-68
2023/09/28 09:31:43;;;;;;;11.18;6.40;;;24.40;95.10;;;;;;5100796;28;20055;-69
2023/09/28 09:34:14;;;;;;;11.32;6.53;;;24.50;95.00;;;;;;5105728;28;20058;-69
2023/09/28 09:36:43;;;;;;;8.77;6.40;;;24.60;94.90;;;;;;5106162;28;20043;-69
2023/09/28 09:39:28;;;;;;;9.57;6.78;;;24.70;94.60;;;;;;5106081;28;20118;-69
2023/09/28 09:41:55;;;;;;;15.07;6.80;;;24.70;94.50;;;;;;5106394;28;20024;-69
2023/09/28 09:44:22;;;;;;;10.98;6.65;;;24.70;94.30;;;;;;5105566;28;20503;-69
2023/09/28 09:46:50;;;;;;;8.48;6.22;;;24.80;94.00;;;;;;5103657;28;20028;-69
2023/09/28 09:49:19;;;;;;;7.03;6.25;;;25.00;93.90;;;;;;5104428;28;20476;-68
2023/09/28 09:51:47;;;;;;;9.63;5.82;;;25.10;93.90;;;;;;5103437;28;20899;-69
2023/09/28 09:54:17;;;;;;;7.60;5.82;;;25.00;93.70;;;;;;5105424;28;20028;-69
2023/09/28 09:56:46;;;;;;;8.32;6.13;;;25.00;93.40;;;;;;5103206;28;20031;-69
2023/09/28 09:59:15;;;;;;;9.10;5.88;;;25.00;93.50;;;;;;5106156;28;20039;-69
2023/09/28 10:01:46;;;;;;;6.57;5.88;;;25.00;93.40;;;;;;5103461;28;20411;-69
2023/09/28 10:04:14;;;;;;;9.18;6.18;;;25.00;93.50;;;;;;5105286;28;20432;-69
2023/09/28 10:06:51;;;;;;;7.75;5.35;;;25.10;93.00;;;;;;5103579;28;20035;-68
2023/09/28 10:09:18;;;;;;;7.95;5.82;;;25.00;93.00;;;;;;5101677;28;20029;-68
2023/09/28 10:11:49;;;;;;;13.23;6.18;;;25.30;92.80;;;;;;5105590;28;20035;-69
2023/09/28 10:14:16;;;;;;;7.38;5.20;;;25.80;92.30;;;;;;5101204;28;20026;-69
2023/09/28 10:16:43;;;;;;;11.23;5.65;;;26.10;91.60;;;;;;5104505;28;20061;-69
2023/09/28 10:19:15;;;;;;;7.55;5.95;;;26.30;91.40;;;;;;5105829;28;20028;-68
2023/09/28 10:21:41;;;;;;;6.10;5.00;;;26.40;90.60;;;;;;5105597;28;20028;-69
2023/09/28 10:24:17;;;;;;;7.30;5.38;;;26.60;90.80;;;;;;5104457;28;20042;-69
2023/09/28 10:26:51;;;;;;;7.35;5.60;;;27.00;89.50;;;;;;5105784;28;20046;-69
2023/09/28 10:29:28;;;;;;;8.13;5.85;;;27.50;87.70;;;;;;5105463;28;20019;-69
2023/09/28 10:31:54;;;;;;;7.20;5.20;;;27.60;86.60;;;;;;5103042;28;20069;-69
2023/09/28 10:34:22;;;;;;;9.73;5.07;;;27.40;85.80;;;;;;5105486;28;20065;-69
2023/09/28 10:37:11;;;;;;;8.00;4.55;;;27.10;86.80;;;;;;5102190;28;20036;-69
2023/09/28 10:39:38;;;;;;;6.00;4.80;;;27.00;87.30;;;;;;5105275;28;20509;-69
2023/09/28 10:42:08;;;;;;;8.95;4.82;;;27.50;87.00;;;;;;5105173;28;20072;-69
2023/09/28 10:44:34;;;;;;;8.57;4.97;;;28.30;83.80;;;;;;5102365;28;20437;-69
2023/09/28 10:47:00;;;;;;;7.57;4.35;;;28.90;81.10;;;;;;5105135;28;20034;-69
2023/09/28 10:49:27;;;;;;;10.50;4.85;;;28.90;80.60;;;;;;5101156;28;20036;-69
2023/09/28 10:51:56;;;;;;;6.05;4.22;;;29.20;80.00;;;;;;5104965;28;20088;-69
2023/09/28 10:54:26;;;;;;;6.05;4.70;;;29.70;79.20;;;;;;5105235;28;20040;-69
2023/09/28 10:56:52;;;;;;;6.57;4.50;;;29.80;76.40;;;;;;5105278;28;20499;-69
2023/09/28 10:59:19;;;;;;;7.85;4.20;;;30.00;73.90;;;;;;5102055;28;20038;-69
2023/09/28 11:01:46;;;;;;;8.75;4.50;;;29.90;73.00;;;;;;5105427;28;20039;-69
2023/09/28 11:04:13;;;;;;;5.35;4.00;;;29.30;72.10;;;;;;5104605;28;20032;-69
2023/09/28 11:06:43;;;;;;;6.97;4.20;;;28.80;73.40;;;;;;5105101;28;20043;-69
2023/09/28 11:09:10;;;;;;;4.00;3.60;;;28.30;75.70;;;;;;5095089;28;20019;-69
2023/09/28 11:11:40;;;;;;;4.95;4.38;;;28.10;77.60;;;;;;5104649;28;20071;-69
2023/09/28 11:14:06;;;;;;;4.55;3.80;;;27.90;76.70;;;;;;5104981;28;20027;-69
2023/09/28 11:16:35;;;;;;;7.68;4.07;;;27.70;76.80;;;;;;5103174;28;20032;-69
2023/09/28 11:19:01;;;;;;;6.15;4.10;;;27.60;76.90;;;;;;5105453;28;20651;-69
2023/09/28 11:21:29;;;;;;;4.85;3.92;;;27.50;78.30;;;;;;5103600;28;20019;-70
2023/09/28 11:23:55;;;;;;;6.43;4.22;;;27.40;77.60;;;;;;5104805;28;20032;-69
2023/09/28 11:26:22;;;;;;;5.40;4.07;;;27.30;78.00;;;;;;5103390;28;20027;-69
2023/09/28 11:28:52;;;;;;;11.30;4.72;;;27.30;79.20;;;;;;5102972;28;20130;-69
2023/09/28 11:31:19;;;;;;;4.03;3.63;;;27.40;77.30;;;;;;5104721;28;20035;-69
2023/09/28 11:33:46;;;;;;;8.45;3.88;;;27.50;77.20;;;;;;5104671;28;20039;-68
2023/09/28 11:36:17;;;;;;;5.10;3.92;;;27.60;75.10;;;;;;5102446;28;20128;-69
2023/09/28 11:38:45;;;;;;;5.63;4.10;;;27.50;75.60;;;;;;5106756;28;20418;-69
2023/09/28 11:41:12;;;;;;;5.35;3.80;;;27.50;74.80;;;;;;5104153;28;20020;-69
2023/09/28 11:43:53;;;;;;;5.20;3.65;;;27.40;77.90;;;;;;5108166;28;20043;-69
2023/09/28 11:46:22;;;;;;;6.72;3.83;;;27.40;76.10;;;;;;5106371;28;20063;-69
2023/09/28 11:49:04;;;;;;;6.20;3.75;;;27.30;77.00;;;;;;5108430;28;20038;-69
2023/09/28 11:51:34;;;;;;;5.75;3.75;;;27.30;77.10;;;;;;5108435;28;20449;-69
2023/09/28 11:54:01;;;;;;;4.55;3.75;;;27.20;77.50;;;;;;5100258;28;20023;-69
2023/09/28 11:56:27;;;;;;;5.68;3.45;;;27.20;77.90;;;;;;5107850;28;20035;-69
2023/09/28 11:58:53;;;;;;;7.03;3.55;;;27.20;76.80;;;;;;5108017;27;20130;-69
2023/09/28 12:01:19;;;;;;;8.07;3.50;;;27.20;78.00;;;;;;5108739;28;20102;-69
2023/09/28 12:03:47;;;;;;;5.47;3.45;;;27.20;76.30;;;;;;5108091;28;20063;-69
2023/09/28 12:06:14;;;;;;;4.38;3.50;;;27.20;75.80;;;;;;5107457;28;20110;-69
2023/09/28 12:08:41;;;;;;;6.38;3.95;;;27.10;77.20;;;;;;5105792;28;20734;-69
2023/09/28 12:11:08;;;;;;;5.75;3.92;;;27.20;78.10;;;;;;5108101;28;20543;-69
2023/09/28 12:13:33;;;;;;;5.43;3.75;;;27.20;79.10;;;;;;5106048;28;20403;-69
2023/09/28 12:16:00;;;;;;;7.43;4.03;;;27.20;78.90;;;;;;5103841;28;20020;-69
2023/09/28 12:18:27;;;;;;;5.05;4.03;;;27.30;79.30;;;;;;5106050;28;20032;-69
2023/09/28 12:20:53;;;;;;;7.00;3.92;;;27.40;77.90;;;;;;5104032;28;20031;-69
2023/09/28 12:23:18;;;;;;;5.13;4.00;;;27.40;77.60;;;;;;5105585;28;20123;-69
2023/09/28 12:25:44;;;;;;;8.25;4.43;;;27.40;78.40;;;;;;5106811;28;20036;-69
2023/09/28 12:28:10;;;;;;;5.15;3.33;;;27.40;78.70;;;;;;5105971;28;20034;-69
2023/09/28 12:30:36;;;;;;;5.88;3.70;;;27.30;77.80;;;;;;5107428;28;20027;-68
2023/09/28 12:33:02;;;;;;;3.72;2.88;;;27.30;77.40;;;;;;5105631;28;20027;-69
2023/09/28 12:35:28;;;;;;;4.78;3.20;;;27.40;76.90;;;;;;5107210;28;20139;-69
2023/09/28 12:37:54;;;;;;;3.58;3.10;;;27.40;76.80;;;;;;5107070;28;20024;-69
2023/09/28 12:40:20;;;;;;;8.25;3.83;;;27.50;76.70;;;;;;5103623;28;20799;-69
2023/09/28 12:42:46;;;;;;;6.10;3.33;;;27.50;75.20;;;;;;5107062;28;20161;-69